sensor_id;sensor_type;location;lat;lon;timestamp;P1;durP1;ratioP1;P2;durP2;ratioP2
74059;SDS011;62414;53.436;8.828;2022-09-09T00:00:38;46.17;;;19.73;;
74059;SDS011;62414;53.436;8.828;2022-09-09T00:03:07;43.40;;;19.67;;
74059;SDS011;62414;53.436;8.828;2022-09-09T00:05:38;41.85;;;18.67;;
74059;SDS011;62414;53.436;8.828;2022-09-09T00:08:10;41.97;;;19.35;;
74059;SDS011;62414;53.436;8.828;2022-09-09T00:10:44;45.97;;;20.30;;
74059;SDS011;62414;53.436;8.828;2022-09-09T00:13:14;47.55;;;19.73;;
74059;SDS011;62414;53.436;8.828;2022-09-09T00:15:47;43.78;;;18.98;;
74059;SDS011;62414;53.436;8.828;2022-09-09T00:18:23;44.58;;;19.20;;
74059;SDS011;62414;53.436;8.828;2022-09-09T00:20:53;44.35;;;18.48;;
74059;SDS011;62414;53.436;8.828;2022-09-09T00:23:25;44.60;;;18.63;;
74059;SDS011;62414;53.436;8.828;2022-09-09T00:25:55;41.70;;;18.48;;
74059;SDS011;62414;53.436;8.828;2022-09-09T00:28:27;42.88;;;19.40;;
74059;SDS011;62414;53.436;8.828;2022-09-09T00:30:53;44.90;;;18.73;;
74059;SDS011;62414;53.436;8.828;2022-09-09T00:33:19;42.77;;;18.50;;
74059;SDS011;62414;53.436;8.828;2022-09-09T00:35:48;42.67;;;19.42;;
74059;SDS011;62414;53.436;8.828;2022-09-09T00:38:16;43.15;;;18.50;;
74059;SDS011;62414;53.436;8.828;2022-09-09T00:40:49;41.83;;;17.90;;
74059;SDS011;62414;53.436;8.828;2022-09-09T00:43:25;45.95;;;19.17;;
74059;SDS011;62414;53.436;8.828;2022-09-09T00:45:57;41.00;;;18.13;;
74059;SDS011;62414;53.436;8.828;2022-09-09T00:48:31;37.90;;;17.98;;
74059;SDS011;62414;53.436;8.828;2022-09-09T00:51:05;39.97;;;17.38;;
74059;SDS011;62414;53.436;8.828;2022-09-09T00:53:51;36.93;;;17.60;;
74059;SDS011;62414;53.436;8.828;2022-09-09T00:56:38;36.70;;;16.63;;
74059;SDS011;62414;53.436;8.828;2022-09-09T00:59:12;33.72;;;15.38;;
74059;SDS011;62414;53.436;8.828;2022-09-09T01:01:47;37.35;;;16.48;;
74059;SDS011;62414;53.436;8.828;2022-09-09T01:04:15;37.75;;;16.45;;
74059;SDS011;62414;53.436;8.828;2022-09-09T01:06:45;37.73;;;16.47;;
74059;SDS011;62414;53.436;8.828;2022-09-09T01:09:18;33.70;;;15.55;;
74059;SDS011;62414;53.436;8.828;2022-09-09T01:11:51;32.70;;;15.57;;
74059;SDS011;62414;53.436;8.828;2022-09-09T01:14:30;34.25;;;15.20;;
74059;SDS011;62414;53.436;8.828;2022-09-09T01:17:05;35.63;;;15.77;;
74059;SDS011;62414;53.436;8.828;2022-09-09T01:19:40;35.63;;;15.33;;
74059;SDS011;62414;53.436;8.828;2022-09-09T01:22:20;39.22;;;16.25;;
74059;SDS011;62414;53.436;8.828;2022-09-09T01:24:54;40.85;;;16.42;;
74059;SDS011;62414;53.436;8.828;2022-09-09T01:28:03;37.38;;;16.27;;
74059;SDS011;62414;53.436;8.828;2022-09-09T01:30:33;54.25;;;20.05;;
74059;SDS011;62414;53.436;8.828;2022-09-09T01:33:03;59.33;;;21.93;;
74059;SDS011;62414;53.436;8.828;2022-09-09T01:35:31;53.58;;;20.40;;
74059;SDS011;62414;53.436;8.828;2022-09-09T01:38:02;69.47;;;24.10;;
74059;SDS011;62414;53.436;8.828;2022-09-09T01:40:29;68.57;;;24.02;;
74059;SDS011;62414;53.436;8.828;2022-09-09T01:42:56;57.80;;;21.95;;
74059;SDS011;62414;53.436;8.828;2022-09-09T01:45:23;57.50;;;21.47;;
74059;SDS011;62414;53.436;8.828;2022-09-09T01:47:48;58.28;;;21.60;;
74059;SDS011;62414;53.436;8.828;2022-09-09T01:50:35;61.50;;;22.50;;
74059;SDS011;62414;53.436;8.828;2022-09-09T01:53:01;54.67;;;22.13;;
74059;SDS011;62414;53.436;8.828;2022-09-09T01:55:31;53.20;;;20.90;;
74059;SDS011;62414;53.436;8.828;2022-09-09T01:58:06;47.92;;;19.27;;
74059;SDS011;62414;53.436;8.828;2022-09-09T02:00:50;45.15;;;19.05;;
74059;SDS011;62414;53.436;8.828;2022-09-09T02:03:23;47.22;;;19.42;;
74059;SDS011;62414;53.436;8.828;2022-09-09T02:06:00;60.67;;;21.75;;
74059;SDS011;62414;53.436;8.828;2022-09-09T02:08:36;54.27;;;20.90;;
74059;SDS011;62414;53.436;8.828;2022-09-09T02:11:09;54.35;;;22.08;;
74059;SDS011;62414;53.436;8.828;2022-09-09T02:13:42;52.25;;;21.27;;
74059;SDS011;62414;53.436;8.828;2022-09-09T02:16:13;61.10;;;23.08;;
74059;SDS011;62414;53.436;8.828;2022-09-09T02:18:46;57.53;;;22.83;;
74059;SDS011;62414;53.436;8.828;2022-09-09T02:21:15;69.17;;;24.77;;
74059;SDS011;62414;53.436;8.828;2022-09-09T02:23:42;69.70;;;25.20;;
74059;SDS011;62414;53.436;8.828;2022-09-09T02:26:11;66.28;;;24.88;;
74059;SDS011;62414;53.436;8.828;2022-09-09T02:28:38;73.85;;;26.00;;
74059;SDS011;62414;53.436;8.828;2022-09-09T02:31:05;68.05;;;24.73;;
74059;SDS011;62414;53.436;8.828;2022-09-09T02:33:39;69.93;;;24.17;;
74059;SDS011;62414;53.436;8.828;2022-09-09T02:36:08;64.75;;;23.77;;
74059;SDS011;62414;53.436;8.828;2022-09-09T02:38:38;65.90;;;24.00;;
74059;SDS011;62414;53.436;8.828;2022-09-09T02:41:10;70.68;;;24.13;;
74059;SDS011;62414;53.436;8.828;2022-09-09T02:43:36;69.57;;;24.60;;
74059;SDS011;62414;53.436;8.828;2022-09-09T02:46:08;63.08;;;23.75;;
74059;SDS011;62414;53.436;8.828;2022-09-09T02:48:40;60.22;;;23.15;;
74059;SDS011;62414;53.436;8.828;2022-09-09T02:51:14;61.33;;;23.20;;
74059;SDS011;62414;53.436;8.828;2022-09-09T02:53:44;53.75;;;21.67;;
74059;SDS011;62414;53.436;8.828;2022-09-09T02:56:16;57.03;;;22.23;;
74059;SDS011;62414;53.436;8.828;2022-09-09T02:58:47;51.92;;;20.77;;
74059;SDS011;62414;53.436;8.828;2022-09-09T03:01:13;51.88;;;20.35;;
74059;SDS011;62414;53.436;8.828;2022-09-09T03:03:40;49.40;;;19.98;;
74059;SDS011;62414;53.436;8.828;2022-09-09T03:06:10;61.67;;;23.37;;
74059;SDS011;62414;53.436;8.828;2022-09-09T03:08:35;53.20;;;21.38;;
74059;SDS011;62414;53.436;8.828;2022-09-09T03:11:01;61.10;;;22.20;;
74059;SDS011;62414;53.436;8.828;2022-09-09T03:13:29;64.15;;;21.92;;
74059;SDS011;62414;53.436;8.828;2022-09-09T03:15:55;59.13;;;22.65;;
74059;SDS011;62414;53.436;8.828;2022-09-09T03:18:20;64.87;;;22.63;;
74059;SDS011;62414;53.436;8.828;2022-09-09T03:20:51;56.47;;;21.80;;
74059;SDS011;62414;53.436;8.828;2022-09-09T03:23:17;57.50;;;22.13;;
74059;SDS011;62414;53.436;8.828;2022-09-09T03:25:47;53.42;;;21.65;;
74059;SDS011;62414;53.436;8.828;2022-09-09T03:28:13;53.88;;;20.92;;
74059;SDS011;62414;53.436;8.828;2022-09-09T03:30:38;61.67;;;22.60;;
74059;SDS011;62414;53.436;8.828;2022-09-09T03:33:05;65.07;;;23.25;;
74059;SDS011;62414;53.436;8.828;2022-09-09T03:35:32;62.20;;;23.43;;
74059;SDS011;62414;53.436;8.828;2022-09-09T03:37:59;58.72;;;23.38;;
74059;SDS011;62414;53.436;8.828;2022-09-09T03:40:25;62.00;;;24.27;;
74059;SDS011;62414;53.436;8.828;2022-09-09T03:42:50;64.70;;;24.50;;
74059;SDS011;62414;53.436;8.828;2022-09-09T03:45:16;69.20;;;24.88;;
74059;SDS011;62414;53.436;8.828;2022-09-09T03:47:42;67.68;;;25.13;;
74059;SDS011;62414;53.436;8.828;2022-09-09T03:50:08;69.17;;;24.63;;
74059;SDS011;62414;53.436;8.828;2022-09-09T03:52:35;70.93;;;25.75;;
74059;SDS011;62414;53.436;8.828;2022-09-09T03:55:03;66.85;;;24.67;;
74059;SDS011;62414;53.436;8.828;2022-09-09T03:57:30;65.88;;;24.30;;
74059;SDS011;62414;53.436;8.828;2022-09-09T03:59:56;70.27;;;25.87;;
74059;SDS011;62414;53.436;8.828;2022-09-09T04:02:22;65.47;;;24.92;;
74059;SDS011;62414;53.436;8.828;2022-09-09T04:04:47;64.73;;;24.13;;
74059;SDS011;62414;53.436;8.828;2022-09-09T04:07:13;67.22;;;25.27;;
74059;SDS011;62414;53.436;8.828;2022-09-09T04:09:39;68.70;;;25.50;;
74059;SDS011;62414;53.436;8.828;2022-09-09T04:12:06;65.95;;;24.85;;
74059;SDS011;62414;53.436;8.828;2022-09-09T04:14:33;68.57;;;26.27;;
74059;SDS011;62414;53.436;8.828;2022-09-09T04:16:58;67.77;;;25.50;;
74059;SDS011;62414;53.436;8.828;2022-09-09T04:19:25;70.38;;;25.55;;
74059;SDS011;62414;53.436;8.828;2022-09-09T04:21:50;62.40;;;24.63;;
74059;SDS011;62414;53.436;8.828;2022-09-09T04:24:17;59.50;;;25.08;;
74059;SDS011;62414;53.436;8.828;2022-09-09T04:26:42;56.10;;;24.07;;
74059;SDS011;62414;53.436;8.828;2022-09-09T04:29:09;61.50;;;24.97;;
74059;SDS011;62414;53.436;8.828;2022-09-09T04:31:35;57.03;;;23.88;;
74059;SDS011;62414;53.436;8.828;2022-09-09T04:34:00;56.90;;;24.13;;
74059;SDS011;62414;53.436;8.828;2022-09-09T04:36:26;54.70;;;22.97;;
74059;SDS011;62414;53.436;8.828;2022-09-09T04:38:56;54.63;;;23.35;;
74059;SDS011;62414;53.436;8.828;2022-09-09T04:41:22;55.20;;;23.98;;
74059;SDS011;62414;53.436;8.828;2022-09-09T04:43:50;54.40;;;23.10;;
74059;SDS011;62414;53.436;8.828;2022-09-09T04:46:17;51.65;;;22.27;;
74059;SDS011;62414;53.436;8.828;2022-09-09T04:48:43;57.33;;;23.95;;
74059;SDS011;62414;53.436;8.828;2022-09-09T04:51:10;52.95;;;23.23;;
74059;SDS011;62414;53.436;8.828;2022-09-09T04:53:38;50.63;;;23.98;;
74059;SDS011;62414;53.436;8.828;2022-09-09T04:56:05;49.47;;;21.93;;
74059;SDS011;62414;53.436;8.828;2022-09-09T04:58:36;49.22;;;22.40;;
74059;SDS011;62414;53.436;8.828;2022-09-09T05:01:05;49.28;;;21.88;;
74059;SDS011;62414;53.436;8.828;2022-09-09T05:03:33;46.15;;;21.17;;
74059;SDS011;62414;53.436;8.828;2022-09-09T05:06:02;45.63;;;21.25;;
74059;SDS011;62414;53.436;8.828;2022-09-09T05:08:29;48.40;;;21.07;;
74059;SDS011;62414;53.436;8.828;2022-09-09T05:10:55;44.80;;;21.25;;
74059;SDS011;62414;53.436;8.828;2022-09-09T05:13:20;45.10;;;20.87;;
74059;SDS011;62414;53.436;8.828;2022-09-09T05:15:51;41.60;;;20.13;;
74059;SDS011;62414;53.436;8.828;2022-09-09T05:18:16;42.58;;;20.15;;
74059;SDS011;62414;53.436;8.828;2022-09-09T05:20:44;37.65;;;19.02;;
74059;SDS011;62414;53.436;8.828;2022-09-09T05:23:09;37.85;;;18.60;;
74059;SDS011;62414;53.436;8.828;2022-09-09T05:25:36;41.87;;;19.43;;
74059;SDS011;62414;53.436;8.828;2022-09-09T05:28:01;41.25;;;18.80;;
74059;SDS011;62414;53.436;8.828;2022-09-09T05:30:27;38.23;;;17.60;;
74059;SDS011;62414;53.436;8.828;2022-09-09T05:32:55;35.92;;;17.77;;
74059;SDS011;62414;53.436;8.828;2022-09-09T05:35:21;37.40;;;18.30;;
74059;SDS011;62414;53.436;8.828;2022-09-09T05:37:47;35.37;;;17.83;;
74059;SDS011;62414;53.436;8.828;2022-09-09T05:40:13;36.25;;;17.60;;
74059;SDS011;62414;53.436;8.828;2022-09-09T05:42:39;39.58;;;18.42;;
74059;SDS011;62414;53.436;8.828;2022-09-09T05:45:05;32.23;;;16.60;;
74059;SDS011;62414;53.436;8.828;2022-09-09T05:47:32;34.80;;;16.80;;
74059;SDS011;62414;53.436;8.828;2022-09-09T05:49:57;33.90;;;16.65;;
74059;SDS011;62414;53.436;8.828;2022-09-09T05:52:23;32.70;;;16.17;;
74059;SDS011;62414;53.436;8.828;2022-09-09T05:54:50;31.13;;;14.87;;
74059;SDS011;62414;53.436;8.828;2022-09-09T05:57:15;31.77;;;14.77;;
74059;SDS011;62414;53.436;8.828;2022-09-09T05:59:42;32.83;;;15.30;;
74059;SDS011;62414;53.436;8.828;2022-09-09T06:02:08;32.53;;;16.30;;
74059;SDS011;62414;53.436;8.828;2022-09-09T06:04:35;30.10;;;15.00;;
74059;SDS011;62414;53.436;8.828;2022-09-09T06:07:01;32.60;;;15.55;;
74059;SDS011;62414;53.436;8.828;2022-09-09T06:09:29;30.00;;;15.73;;
74059;SDS011;62414;53.436;8.828;2022-09-09T06:11:56;30.17;;;15.73;;
74059;SDS011;62414;53.436;8.828;2022-09-09T06:14:22;31.65;;;16.17;;
74059;SDS011;62414;53.436;8.828;2022-09-09T06:16:49;36.25;;;16.02;;
74059;SDS011;62414;53.436;8.828;2022-09-09T06:19:19;32.38;;;15.80;;
74059;SDS011;62414;53.436;8.828;2022-09-09T06:21:44;34.87;;;17.00;;
74059;SDS011;62414;53.436;8.828;2022-09-09T06:24:10;32.28;;;16.17;;
74059;SDS011;62414;53.436;8.828;2022-09-09T06:26:37;37.40;;;17.30;;
74059;SDS011;62414;53.436;8.828;2022-09-09T06:29:05;32.40;;;16.35;;
74059;SDS011;62414;53.436;8.828;2022-09-09T06:31:32;37.92;;;17.67;;
74059;SDS011;62414;53.436;8.828;2022-09-09T06:34:05;31.60;;;15.88;;
74059;SDS011;62414;53.436;8.828;2022-09-09T06:36:33;34.88;;;16.60;;
74059;SDS011;62414;53.436;8.828;2022-09-09T06:39:01;33.40;;;15.93;;
74059;SDS011;62414;53.436;8.828;2022-09-09T06:41:30;33.40;;;16.52;;
74059;SDS011;62414;53.436;8.828;2022-09-09T06:43:56;35.35;;;17.33;;
74059;SDS011;62414;53.436;8.828;2022-09-09T06:46:31;32.63;;;16.45;;
74059;SDS011;62414;53.436;8.828;2022-09-09T06:48:57;35.92;;;16.60;;
74059;SDS011;62414;53.436;8.828;2022-09-09T06:51:23;36.60;;;18.33;;
74059;SDS011;62414;53.436;8.828;2022-09-09T06:53:51;35.47;;;17.80;;
74059;SDS011;62414;53.436;8.828;2022-09-09T06:56:19;33.53;;;17.08;;
74059;SDS011;62414;53.436;8.828;2022-09-09T06:58:48;29.98;;;15.23;;
74059;SDS011;62414;53.436;8.828;2022-09-09T07:01:21;31.30;;;15.40;;
74059;SDS011;62414;53.436;8.828;2022-09-09T07:03:50;24.60;;;13.47;;
74059;SDS011;62414;53.436;8.828;2022-09-09T07:06:18;25.88;;;14.50;;
74059;SDS011;62414;53.436;8.828;2022-09-09T07:08:48;23.15;;;12.85;;
74059;SDS011;62414;53.436;8.828;2022-09-09T07:11:14;20.25;;;11.88;;
74059;SDS011;62414;53.436;8.828;2022-09-09T07:13:40;25.73;;;12.52;;
74059;SDS011;62414;53.436;8.828;2022-09-09T07:16:07;20.43;;;10.50;;
74059;SDS011;62414;53.436;8.828;2022-09-09T07:18:33;21.70;;;11.38;;
74059;SDS011;62414;53.436;8.828;2022-09-09T07:21:02;17.27;;;9.95;;
74059;SDS011;62414;53.436;8.828;2022-09-09T07:23:28;22.17;;;11.00;;
74059;SDS011;62414;53.436;8.828;2022-09-09T07:25:54;18.98;;;10.25;;
74059;SDS011;62414;53.436;8.828;2022-09-09T07:28:20;19.10;;;9.90;;
74059;SDS011;62414;53.436;8.828;2022-09-09T07:30:52;20.88;;;10.68;;
74059;SDS011;62414;53.436;8.828;2022-09-09T07:33:18;18.30;;;9.82;;
74059;SDS011;62414;53.436;8.828;2022-09-09T07:35:43;18.97;;;9.53;;
74059;SDS011;62414;53.436;8.828;2022-09-09T07:38:10;14.77;;;8.60;;
74059;SDS011;62414;53.436;8.828;2022-09-09T07:40:36;16.23;;;7.95;;
74059;SDS011;62414;53.436;8.828;2022-09-09T07:43:02;14.70;;;6.82;;
74059;SDS011;62414;53.436;8.828;2022-09-09T07:45:27;14.67;;;7.00;;
74059;SDS011;62414;53.436;8.828;2022-09-09T07:47:53;12.10;;;6.57;;
74059;SDS011;62414;53.436;8.828;2022-09-09T07:50:19;12.80;;;6.17;;
74059;SDS011;62414;53.436;8.828;2022-09-09T07:52:44;9.90;;;4.88;;
74059;SDS011;62414;53.436;8.828;2022-09-09T07:55:11;9.20;;;4.23;;
74059;SDS011;62414;53.436;8.828;2022-09-09T07:57:36;7.95;;;3.65;;
74059;SDS011;62414;53.436;8.828;2022-09-09T08:00:03;7.72;;;3.85;;
74059;SDS011;62414;53.436;8.828;2022-09-09T08:02:37;8.48;;;3.95;;
74059;SDS011;62414;53.436;8.828;2022-09-09T08:05:04;9.90;;;3.30;;
74059;SDS011;62414;53.436;8.828;2022-09-09T08:07:30;7.78;;;3.83;;
74059;SDS011;62414;53.436;8.828;2022-09-09T08:09:55;8.20;;;4.30;;
74059;SDS011;62414;53.436;8.828;2022-09-09T08:12:26;10.05;;;4.20;;
74059;SDS011;62414;53.436;8.828;2022-09-09T08:14:52;9.30;;;3.80;;
74059;SDS011;62414;53.436;8.828;2022-09-09T08:17:18;8.00;;;4.03;;
74059;SDS011;62414;53.436;8.828;2022-09-09T08:19:43;7.30;;;3.70;;
74059;SDS011;62414;53.436;8.828;2022-09-09T08:22:13;7.65;;;3.90;;
74059;SDS011;62414;53.436;8.828;2022-09-09T08:24:39;6.77;;;3.73;;
74059;SDS011;62414;53.436;8.828;2022-09-09T08:27:04;6.90;;;3.60;;
74059;SDS011;62414;53.436;8.828;2022-09-09T08:29:32;8.47;;;3.50;;
74059;SDS011;62414;53.436;8.828;2022-09-09T08:31:58;8.40;;;3.60;;
74059;SDS011;62414;53.436;8.828;2022-09-09T08:34:25;7.07;;;3.72;;
74059;SDS011;62414;53.436;8.828;2022-09-09T08:36:51;8.02;;;3.78;;
74059;SDS011;62414;53.436;8.828;2022-09-09T08:39:22;6.80;;;3.50;;
74059;SDS011;62414;53.436;8.828;2022-09-09T08:41:56;5.50;;;2.83;;
74059;SDS011;62414;53.436;8.828;2022-09-09T08:44:47;6.25;;;3.05;;
74059;SDS011;62414;53.436;8.828;2022-09-09T08:47:24;6.72;;;3.17;;
74059;SDS011;62414;53.436;8.828;2022-09-09T08:49:59;8.07;;;4.40;;
74059;SDS011;62414;53.436;8.828;2022-09-09T08:52:41;10.80;;;4.53;;
74059;SDS011;62414;53.436;8.828;2022-09-09T08:55:17;8.63;;;5.63;;
74059;SDS011;62414;53.436;8.828;2022-09-09T08:57:49;11.55;;;5.43;;
74059;SDS011;62414;53.436;8.828;2022-09-09T09:00:19;9.77;;;5.40;;
74059;SDS011;62414;53.436;8.828;2022-09-09T09:02:46;9.10;;;5.30;;
74059;SDS011;62414;53.436;8.828;2022-09-09T09:05:22;8.98;;;5.38;;
74059;SDS011;62414;53.436;8.828;2022-09-09T09:07:55;9.83;;;4.93;;
74059;SDS011;62414;53.436;8.828;2022-09-09T09:10:34;8.55;;;4.53;;
74059;SDS011;62414;53.436;8.828;2022-09-09T09:13:12;10.20;;;3.90;;
74059;SDS011;62414;53.436;8.828;2022-09-09T09:15:41;5.78;;;3.08;;
74059;SDS011;62414;53.436;8.828;2022-09-09T09:18:09;8.85;;;3.03;;
74059;SDS011;62414;53.436;8.828;2022-09-09T09:20:39;5.30;;;2.60;;
74059;SDS011;62414;53.436;8.828;2022-09-09T09:23:09;7.85;;;2.75;;
74059;SDS011;62414;53.436;8.828;2022-09-09T09:25:44;6.10;;;2.33;;
74059;SDS011;62414;53.436;8.828;2022-09-09T09:28:10;6.60;;;2.70;;
74059;SDS011;62414;53.436;8.828;2022-09-09T09:30:41;9.43;;;3.25;;
74059;SDS011;62414;53.436;8.828;2022-09-09T09:33:11;6.45;;;2.90;;
74059;SDS011;62414;53.436;8.828;2022-09-09T09:35:41;8.15;;;3.88;;
74059;SDS011;62414;53.436;8.828;2022-09-09T09:38:10;9.00;;;4.80;;
74059;SDS011;62414;53.436;8.828;2022-09-09T09:40:50;7.38;;;4.65;;
74059;SDS011;62414;53.436;8.828;2022-09-09T09:43:18;9.13;;;5.13;;
74059;SDS011;62414;53.436;8.828;2022-09-09T09:45:48;8.38;;;4.93;;
74059;SDS011;62414;53.436;8.828;2022-09-09T09:48:15;8.88;;;5.80;;
74059;SDS011;62414;53.436;8.828;2022-09-09T09:50:46;8.07;;;5.70;;
74059;SDS011;62414;53.436;8.828;2022-09-09T09:53:16;10.20;;;5.63;;
74059;SDS011;62414;53.436;8.828;2022-09-09T09:55:48;10.07;;;5.80;;
74059;SDS011;62414;53.436;8.828;2022-09-09T09:58:18;8.53;;;6.10;;
74059;SDS011;62414;53.436;8.828;2022-09-09T10:00:49;11.07;;;6.25;;
74059;SDS011;62414;53.436;8.828;2022-09-09T10:03:20;9.02;;;5.80;;
74059;SDS011;62414;53.436;8.828;2022-09-09T10:05:49;8.70;;;5.90;;
74059;SDS011;62414;53.436;8.828;2022-09-09T10:08:16;11.95;;;7.60;;
74059;SDS011;62414;53.436;8.828;2022-09-09T10:10:46;12.17;;;8.27;;
74059;SDS011;62414;53.436;8.828;2022-09-09T10:13:23;13.82;;;10.80;;
74059;SDS011;62414;53.436;8.828;2022-09-09T10:15:58;14.45;;;11.00;;
74059;SDS011;62414;53.436;8.828;2022-09-09T10:18:45;13.88;;;11.10;;
74059;SDS011;62414;53.436;8.828;2022-09-09T10:21:20;12.35;;;10.77;;
74059;SDS011;62414;53.436;8.828;2022-09-09T10:24:04;13.80;;;11.13;;
74059;SDS011;62414;53.436;8.828;2022-09-09T10:26:52;15.18;;;10.00;;
74059;SDS011;62414;53.436;8.828;2022-09-09T10:29:26;12.60;;;8.88;;
74059;SDS011;62414;53.436;8.828;2022-09-09T10:32:05;16.23;;;9.63;;
74059;SDS011;62414;53.436;8.828;2022-09-09T10:34:49;10.30;;;8.25;;
74059;SDS011;62414;53.436;8.828;2022-09-09T10:37:24;11.90;;;7.93;;
74059;SDS011;62414;53.436;8.828;2022-09-09T10:40:02;10.15;;;7.70;;
74059;SDS011;62414;53.436;8.828;2022-09-09T10:42:40;12.57;;;8.98;;
74059;SDS011;62414;53.436;8.828;2022-09-09T10:45:10;11.23;;;8.30;;
74059;SDS011;62414;53.436;8.828;2022-09-09T10:47:47;10.25;;;7.10;;
74059;SDS011;62414;53.436;8.828;2022-09-09T10:50:40;11.07;;;6.00;;
74059;SDS011;62414;53.436;8.828;2022-09-09T10:53:13;8.30;;;6.77;;
74059;SDS011;62414;53.436;8.828;2022-09-09T10:55:43;10.40;;;6.75;;
74059;SDS011;62414;53.436;8.828;2022-09-09T10:58:14;8.88;;;6.00;;
74059;SDS011;62414;53.436;8.828;2022-09-09T11:00:45;9.98;;;5.78;;
74059;SDS011;62414;53.436;8.828;2022-09-09T11:03:17;8.63;;;5.30;;
74059;SDS011;62414;53.436;8.828;2022-09-09T11:05:48;8.33;;;5.20;;
74059;SDS011;62414;53.436;8.828;2022-09-09T11:08:17;6.93;;;4.57;;
74059;SDS011;62414;53.436;8.828;2022-09-09T11:10:44;5.80;;;4.10;;
74059;SDS011;62414;53.436;8.828;2022-09-09T11:13:14;7.22;;;3.80;;
74059;SDS011;62414;53.436;8.828;2022-09-09T11:15:44;6.95;;;4.25;;
74059;SDS011;62414;53.436;8.828;2022-09-09T11:18:13;6.90;;;3.90;;
74059;SDS011;62414;53.436;8.828;2022-09-09T11:20:44;6.55;;;3.53;;
74059;SDS011;62414;53.436;8.828;2022-09-09T11:23:13;6.68;;;3.30;;
74059;SDS011;62414;53.436;8.828;2022-09-09T11:25:42;7.13;;;3.33;;
74059;SDS011;62414;53.436;8.828;2022-09-09T11:28:20;8.85;;;3.10;;
74059;SDS011;62414;53.436;8.828;2022-09-09T11:30:58;7.33;;;3.00;;
74059;SDS011;62414;53.436;8.828;2022-09-09T11:33:41;6.65;;;3.10;;
74059;SDS011;62414;53.436;8.828;2022-09-09T11:36:22;7.30;;;3.08;;
74059;SDS011;62414;53.436;8.828;2022-09-09T11:39:02;6.15;;;3.22;;
74059;SDS011;62414;53.436;8.828;2022-09-09T11:41:43;10.27;;;3.40;;
74059;SDS011;62414;53.436;8.828;2022-09-09T11:44:10;7.77;;;3.30;;
74059;SDS011;62414;53.436;8.828;2022-09-09T11:46:37;9.80;;;4.10;;
74059;SDS011;62414;53.436;8.828;2022-09-09T11:49:06;6.22;;;3.38;;
74059;SDS011;62414;53.436;8.828;2022-09-09T11:51:51;7.13;;;3.67;;
74059;SDS011;62414;53.436;8.828;2022-09-09T11:54:26;5.45;;;3.38;;
74059;SDS011;62414;53.436;8.828;2022-09-09T11:56:53;6.63;;;3.63;;
74059;SDS011;62414;53.436;8.828;2022-09-09T11:59:19;7.40;;;4.00;;
74059;SDS011;62414;53.436;8.828;2022-09-09T12:01:49;6.85;;;3.90;;
74059;SDS011;62414;53.436;8.828;2022-09-09T12:04:33;7.13;;;3.80;;
74059;SDS011;62414;53.436;8.828;2022-09-09T12:07:03;7.55;;;3.78;;
74059;SDS011;62414;53.436;8.828;2022-09-09T12:09:32;7.47;;;3.60;;
74059;SDS011;62414;53.436;8.828;2022-09-09T12:12:06;9.60;;;3.90;;
74059;SDS011;62414;53.436;8.828;2022-09-09T12:14:54;7.88;;;3.35;;
74059;SDS011;62414;53.436;8.828;2022-09-09T12:17:21;8.30;;;3.90;;
74059;SDS011;62414;53.436;8.828;2022-09-09T12:19:59;9.75;;;4.00;;
74059;SDS011;62414;53.436;8.828;2022-09-09T12:22:26;7.85;;;3.83;;
74059;SDS011;62414;53.436;8.828;2022-09-09T12:25:00;7.38;;;3.00;;
74059;SDS011;62414;53.436;8.828;2022-09-09T12:27:34;7.15;;;4.13;;
74059;SDS011;62414;53.436;8.828;2022-09-09T12:30:08;8.63;;;4.80;;
74059;SDS011;62414;53.436;8.828;2022-09-09T12:32:35;8.85;;;4.65;;
74059;SDS011;62414;53.436;8.828;2022-09-09T12:35:04;6.50;;;4.40;;
74059;SDS011;62414;53.436;8.828;2022-09-09T12:37:37;8.73;;;3.88;;
74059;SDS011;62414;53.436;8.828;2022-09-09T12:40:06;6.40;;;3.87;;
74059;SDS011;62414;53.436;8.828;2022-09-09T12:42:43;7.95;;;3.88;;
74059;SDS011;62414;53.436;8.828;2022-09-09T12:45:15;8.35;;;3.80;;
74059;SDS011;62414;53.436;8.828;2022-09-09T12:47:43;8.43;;;4.00;;
74059;SDS011;62414;53.436;8.828;2022-09-09T12:50:21;7.97;;;4.10;;
74059;SDS011;62414;53.436;8.828;2022-09-09T12:52:49;8.02;;;4.20;;
74059;SDS011;62414;53.436;8.828;2022-09-09T12:55:17;8.95;;;4.43;;
74059;SDS011;62414;53.436;8.828;2022-09-09T12:57:44;9.85;;;5.30;;
74059;SDS011;62414;53.436;8.828;2022-09-09T13:00:12;11.57;;;4.97;;
74059;SDS011;62414;53.436;8.828;2022-09-09T13:02:47;14.65;;;5.78;;
74059;SDS011;62414;53.436;8.828;2022-09-09T13:05:15;11.70;;;5.60;;
74059;SDS011;62414;53.436;8.828;2022-09-09T13:07:44;10.43;;;5.82;;
74059;SDS011;62414;53.436;8.828;2022-09-09T13:10:10;12.53;;;6.30;;
74059;SDS011;62414;53.436;8.828;2022-09-09T13:12:37;10.73;;;6.60;;
74059;SDS011;62414;53.436;8.828;2022-09-09T13:15:03;13.57;;;6.85;;
74059;SDS011;62414;53.436;8.828;2022-09-09T13:17:29;17.95;;;7.13;;
74059;SDS011;62414;53.436;8.828;2022-09-09T13:19:54;10.20;;;5.77;;
74059;SDS011;62414;53.436;8.828;2022-09-09T13:22:21;9.93;;;5.53;;
74059;SDS011;62414;53.436;8.828;2022-09-09T13:24:59;9.63;;;5.23;;
74059;SDS011;62414;53.436;8.828;2022-09-09T13:27:28;9.75;;;5.20;;
74059;SDS011;62414;53.436;8.828;2022-09-09T13:29:55;11.88;;;5.63;;
74059;SDS011;62414;53.436;8.828;2022-09-09T13:32:21;11.70;;;4.85;;
74059;SDS011;62414;53.436;8.828;2022-09-09T13:34:50;7.77;;;5.20;;
74059;SDS011;62414;53.436;8.828;2022-09-09T13:37:17;9.35;;;5.07;;
74059;SDS011;62414;53.436;8.828;2022-09-09T13:39:51;11.15;;;5.75;;
74059;SDS011;62414;53.436;8.828;2022-09-09T13:42:21;11.03;;;6.00;;
74059;SDS011;62414;53.436;8.828;2022-09-09T13:44:50;9.65;;;5.95;;
74059;SDS011;62414;53.436;8.828;2022-09-09T13:47:17;11.38;;;5.78;;
74059;SDS011;62414;53.436;8.828;2022-09-09T13:49:44;10.45;;;5.60;;
74059;SDS011;62414;53.436;8.828;2022-09-09T13:52:10;7.20;;;4.43;;
74059;SDS011;62414;53.436;8.828;2022-09-09T13:54:37;8.55;;;4.60;;
74059;SDS011;62414;53.436;8.828;2022-09-09T13:57:03;8.67;;;4.30;;
74059;SDS011;62414;53.436;8.828;2022-09-09T13:59:30;8.95;;;4.10;;
74059;SDS011;62414;53.436;8.828;2022-09-09T14:01:55;7.72;;;4.25;;
74059;SDS011;62414;53.436;8.828;2022-09-09T14:04:21;7.30;;;3.97;;
74059;SDS011;62414;53.436;8.828;2022-09-09T14:06:46;8.98;;;3.60;;
74059;SDS011;62414;53.436;8.828;2022-09-09T14:09:13;6.83;;;3.53;;
74059;SDS011;62414;53.436;8.828;2022-09-09T14:11:40;8.68;;;3.75;;
74059;SDS011;62414;53.436;8.828;2022-09-09T14:14:06;9.45;;;3.65;;
74059;SDS011;62414;53.436;8.828;2022-09-09T14:16:33;7.07;;;3.80;;
74059;SDS011;62414;53.436;8.828;2022-09-09T14:18:58;8.65;;;3.70;;
74059;SDS011;62414;53.436;8.828;2022-09-09T14:21:24;7.23;;;3.50;;
74059;SDS011;62414;53.436;8.828;2022-09-09T14:23:50;8.27;;;3.78;;
74059;SDS011;62414;53.436;8.828;2022-09-09T14:26:15;6.60;;;3.60;;
74059;SDS011;62414;53.436;8.828;2022-09-09T14:28:41;7.00;;;3.40;;
74059;SDS011;62414;53.436;8.828;2022-09-09T14:31:06;6.07;;;3.33;;
74059;SDS011;62414;53.436;8.828;2022-09-09T14:33:33;8.00;;;3.22;;
74059;SDS011;62414;53.436;8.828;2022-09-09T14:36:01;6.70;;;3.20;;
74059;SDS011;62414;53.436;8.828;2022-09-09T14:38:28;5.65;;;2.97;;
74059;SDS011;62414;53.436;8.828;2022-09-09T14:40:54;5.53;;;2.80;;
74059;SDS011;62414;53.436;8.828;2022-09-09T14:43:20;5.97;;;2.90;;
74059;SDS011;62414;53.436;8.828;2022-09-09T14:45:45;9.80;;;2.87;;
74059;SDS011;62414;53.436;8.828;2022-09-09T14:48:11;6.32;;;3.05;;